createdAt,value
2022-09-06T00:04:18.910Z,1.93
2022-09-06T00:09:24.301Z,1.77
2022-09-06T00:14:29.699Z,1.43
2022-09-06T00:19:35.050Z,1.70
2022-09-06T00:24:40.407Z,1.67
2022-09-06T00:29:45.642Z,1.50
2022-09-06T00:34:52.385Z,1.83
2022-09-06T00:39:58.431Z,1.67
2022-09-06T00:45:05.508Z,1.90
2022-09-06T00:50:13.717Z,1.93
2022-09-06T00:55:19.383Z,2.00
2022-09-06T01:00:24.655Z,1.67
2022-09-06T01:05:33.178Z,1.57
2022-09-06T01:11:05.332Z,1.33
2022-09-06T01:16:30.174Z,1.53
2022-09-06T01:21:53.196Z,2.03
2022-09-06T01:27:36.613Z,2.13
2022-09-06T01:32:56.821Z,2.07
2022-09-06T01:38:03.238Z,1.40
2022-09-06T01:43:11.713Z,1.77
2022-09-06T01:48:19.957Z,1.77
2022-09-06T01:53:47.458Z,2.07
2022-09-06T01:59:04.394Z,2.17
2022-09-06T02:04:24.443Z,2.33
2022-09-06T02:09:32.590Z,1.70
2022-09-06T02:14:46.761Z,2.27
2022-09-06T02:19:54.987Z,1.90
2022-09-06T02:25:01.473Z,2.17
2022-09-06T02:30:08.133Z,2.30
2022-09-06T02:35:16.319Z,2.67
2022-09-06T02:40:21.903Z,3.53
2022-09-06T02:45:27.330Z,2.40
2022-09-06T02:50:32.581Z,2.37
2022-09-06T02:55:39.151Z,1.93
2022-09-06T03:00:45.659Z,2.10
2022-09-06T03:05:53.183Z,1.90
2022-09-06T03:10:59.842Z,2.57
2022-09-06T03:16:05.066Z,2.77
2022-09-06T03:21:10.285Z,4.23
2022-09-06T03:26:15.488Z,3.90
2022-09-06T03:31:20.844Z,2.67
2022-09-06T03:36:27.009Z,2.97
2022-09-06T03:41:32.176Z,2.40
2022-09-06T03:46:38.083Z,2.07
2022-09-06T03:51:43.384Z,1.80
2022-09-06T03:56:48.711Z,2.53
2022-09-06T04:01:54.057Z,2.10
2022-09-06T04:06:59.578Z,1.77
2022-09-06T04:12:05.192Z,1.97
2022-09-06T04:17:10.544Z,2.27
2022-09-06T04:22:15.944Z,1.60
2022-09-06T04:27:22.437Z,2.63
2022-09-06T04:32:28.144Z,2.70
2022-09-06T04:37:35.188Z,2.53
2022-09-06T04:42:40.360Z,2.63
2022-09-06T04:47:46.046Z,2.90
2022-09-06T04:52:51.326Z,5.17
2022-09-06T04:57:58.280Z,6.13
2022-09-06T05:03:04.973Z,5.00
2022-09-06T05:08:10.397Z,4.30
2022-09-06T05:13:15.621Z,3.20
2022-09-06T05:18:20.915Z,2.40
2022-09-06T05:23:26.743Z,2.80
2022-09-06T05:28:32.224Z,2.70
2022-09-06T05:33:38.075Z,2.40
2022-09-06T05:38:43.446Z,2.30
2022-09-06T05:43:50.299Z,2.73
2022-09-06T05:49:08.847Z,2.43
2022-09-06T05:54:15.168Z,2.37
2022-09-06T05:59:20.293Z,2.97
2022-09-06T06:04:25.488Z,2.33
2022-09-06T06:09:30.772Z,2.43
2022-09-06T06:14:36.632Z,2.27
2022-09-06T06:19:41.858Z,2.23
2022-09-06T06:24:46.888Z,2.27
2022-09-06T06:29:52.742Z,2.33
2022-09-06T06:34:58.812Z,2.10
2022-09-06T06:40:05.787Z,2.23
2022-09-06T06:45:11.512Z,2.30
2022-09-06T06:50:16.907Z,2.20
2022-09-06T06:55:22.020Z,1.77
2022-09-06T07:00:30.951Z,2.17
2022-09-06T07:10:44.605Z,1.70
2022-09-06T07:15:49.731Z,2.00
2022-09-06T07:26:05.045Z,1.90
2022-09-06T07:36:18.127Z,2.13
2022-09-06T07:41:23.283Z,1.60
2022-09-06T07:46:28.514Z,2.00
2022-09-06T07:51:34.569Z,2.13
2022-09-06T07:56:40.592Z,1.90
2022-09-06T08:01:47.747Z,1.77
2022-09-06T08:12:07.620Z,1.70
2022-09-06T08:17:17.221Z,1.80
2022-09-06T08:22:24.105Z,1.53
2022-09-06T08:27:31.160Z,1.30
2022-09-06T08:32:36.902Z,1.30
2022-09-06T08:37:48.116Z,1.33
2022-09-06T08:42:55.708Z,1.53
2022-09-06T08:48:01.092Z,1.20
2022-09-06T08:53:17.986Z,1.40
2022-09-06T08:58:32.471Z,1.40
2022-09-06T09:03:42.963Z,5.05
2022-09-06T09:09:17.037Z,12.47
2022-09-06T09:14:33.569Z,1.10
2022-09-06T09:19:41.779Z,0.80
2022-09-06T09:24:51.007Z,1.62
2022-09-06T09:35:34.801Z,1.37
2022-09-06T09:41:03.112Z,0.70
2022-09-06T09:46:30.806Z,0.82
2022-09-06T09:51:41.436Z,0.68
2022-09-06T09:56:53.079Z,0.70
2022-09-06T10:02:02.208Z,0.72
2022-09-06T10:07:20.725Z,0.80
2022-09-06T10:12:44.029Z,1.00
2022-09-06T10:17:52.180Z,0.70
2022-09-06T10:28:41.551Z,1.00
2022-09-06T10:34:08.754Z,0.80
2022-09-06T10:39:37.437Z,0.80
2022-09-06T10:44:57.834Z,0.75
2022-09-06T10:50:05.634Z,2.33
2022-09-06T10:55:15.168Z,1.02
2022-09-06T11:00:21.863Z,0.70
2022-09-06T11:10:45.704Z,0.90
2022-09-06T11:16:08.955Z,0.88
2022-09-06T11:21:46.152Z,0.88
2022-09-06T11:27:13.389Z,0.78
2022-09-06T11:32:41.076Z,0.80
2022-09-06T11:37:50.892Z,1.07
2022-09-06T11:42:59.602Z,0.75
2022-09-06T11:48:28.795Z,0.55
2022-09-06T11:53:38.500Z,0.68
2022-09-06T11:58:49.025Z,1.10
2022-09-06T12:09:29.780Z,1.17
2022-09-06T12:14:41.636Z,0.80
2022-09-06T12:20:00.632Z,0.60
2022-09-06T12:25:26.647Z,0.60
2022-09-06T12:30:45.226Z,0.70
2022-09-06T12:41:00.653Z,0.80
2022-09-06T12:46:08.583Z,0.60
2022-09-06T12:51:24.276Z,0.90
2022-09-06T12:56:33.215Z,1.50
2022-09-06T13:01:40.011Z,0.80
2022-09-06T13:06:50.552Z,1.47
2022-09-06T13:11:58.792Z,4.80
2022-09-06T13:17:05.845Z,1.60
2022-09-06T13:22:21.826Z,0.78
2022-09-06T13:27:36.880Z,2.58
2022-09-06T13:32:50.503Z,1.00
2022-09-06T13:38:18.198Z,1.32
2022-09-06T13:43:25.664Z,1.45
2022-09-06T13:48:31.084Z,0.90
2022-09-06T13:53:37.630Z,1.42
2022-09-06T13:58:42.801Z,0.95
2022-09-06T14:03:52.976Z,1.32
2022-09-06T14:09:07.484Z,0.90
2022-09-06T14:14:13.133Z,1.47
2022-09-06T14:19:18.302Z,1.63
2022-09-06T14:24:26.036Z,1.07
2022-09-06T14:29:37.166Z,1.00
2022-09-06T14:34:49.590Z,5.60
2022-09-06T14:39:56.205Z,0.90
2022-09-06T14:45:04.091Z,1.10
2022-09-06T14:50:15.965Z,1.53
2022-09-06T14:55:23.111Z,1.20
2022-09-06T15:00:29.819Z,0.73
2022-09-06T15:05:42.534Z,1.77
2022-09-06T15:10:56.277Z,1.50
2022-09-06T15:16:02.335Z,5.43
2022-09-06T15:21:14.000Z,8.70
2022-09-06T15:26:20.936Z,0.80
2022-09-06T15:31:28.370Z,5.87
2022-09-06T15:36:37.273Z,1.13
2022-09-06T15:42:07.062Z,1.50
2022-09-06T15:47:15.541Z,1.20
2022-09-06T15:52:20.803Z,1.30
2022-09-06T15:57:29.165Z,2.97
2022-09-06T16:02:35.475Z,1.80
2022-09-06T16:07:42.349Z,4.70
2022-09-06T16:12:50.706Z,3.20
2022-09-06T16:18:03.247Z,1.50
2022-09-06T16:23:10.958Z,2.73
2022-09-06T16:28:19.910Z,2.10
2022-09-06T16:33:26.189Z,1.97
2022-09-06T16:38:36.225Z,1.00
2022-09-06T16:43:47.960Z,2.00
2022-09-06T16:49:00.332Z,3.97
2022-09-06T16:54:12.440Z,2.73
2022-09-06T16:59:19.067Z,1.20
2022-09-06T17:04:24.398Z,1.60
2022-09-06T17:09:29.643Z,1.47
2022-09-06T17:14:38.520Z,2.10
2022-09-06T17:19:44.861Z,2.00
2022-09-06T17:24:50.179Z,2.30
2022-09-06T17:29:56.885Z,2.20
2022-09-06T17:35:02.173Z,1.70
2022-09-06T17:40:11.909Z,2.53
2022-09-06T17:45:28.982Z,2.63
2022-09-06T17:50:35.889Z,3.17
2022-09-06T17:55:44.539Z,4.97
2022-09-06T18:00:50.547Z,4.20
2022-09-06T18:05:55.884Z,3.23
2022-09-06T18:11:03.393Z,3.07
2022-09-06T18:16:08.931Z,3.50
2022-09-06T18:21:14.247Z,2.77
2022-09-06T18:26:19.508Z,3.40
2022-09-06T18:31:27.859Z,3.80
2022-09-06T18:36:33.144Z,4.37
2022-09-06T18:41:57.572Z,4.40
2022-09-06T18:47:09.153Z,3.47
2022-09-06T18:52:15.184Z,4.50
2022-09-06T18:57:21.805Z,3.00
2022-09-06T19:02:29.208Z,3.20
2022-09-06T19:07:37.050Z,3.40
2022-09-06T19:12:42.961Z,3.60
2022-09-06T19:17:51.136Z,3.80
2022-09-06T19:22:56.393Z,4.20
2022-09-06T19:28:02.379Z,4.53
2022-09-06T19:33:08.815Z,5.67
2022-09-06T19:38:14.099Z,5.40
2022-09-06T19:43:19.282Z,6.37
2022-09-06T19:48:24.497Z,7.13
2022-09-06T19:53:31.365Z,5.77
2022-09-06T19:58:37.089Z,5.67
2022-09-06T20:03:43.713Z,7.17
2022-09-06T20:08:52.173Z,6.53
2022-09-06T20:13:57.693Z,5.87
2022-09-06T20:19:04.388Z,5.23
2022-09-06T20:24:09.753Z,10.50
2022-09-06T20:29:15.085Z,11.63
2022-09-06T20:34:20.493Z,7.80
2022-09-06T20:39:25.905Z,6.03
2022-09-06T20:44:31.198Z,7.57
2022-09-06T20:49:36.577Z,8.77
2022-09-06T20:54:41.816Z,10.67
2022-09-06T20:59:47.389Z,11.60
2022-09-06T21:04:53.055Z,12.80
2022-09-06T21:09:58.372Z,8.93
2022-09-06T21:15:06.025Z,7.67
2022-09-06T21:20:12.987Z,9.80
2022-09-06T21:25:18.244Z,8.03
2022-09-06T21:30:24.807Z,8.37
2022-09-06T21:35:30.063Z,7.50
2022-09-06T21:40:38.300Z,8.10
2022-09-06T21:45:44.016Z,7.20
2022-09-06T21:50:52.979Z,6.87
2022-09-06T21:56:02.730Z,7.60
2022-09-06T22:01:08.814Z,11.23
2022-09-06T22:06:20.269Z,10.10
2022-09-06T22:11:28.057Z,9.97
2022-09-06T22:16:35.951Z,9.57
2022-09-06T22:21:41.818Z,8.80
2022-09-06T22:26:47.072Z,8.63
2022-09-06T22:31:52.865Z,9.67
2022-09-06T22:36:58.210Z,9.70
2022-09-06T22:42:03.527Z,8.23
2022-09-06T22:47:09.035Z,7.23
2022-09-06T22:52:14.382Z,7.30
2022-09-06T22:57:19.550Z,6.63
2022-09-06T23:02:24.806Z,6.50
2022-09-06T23:07:29.919Z,6.57
2022-09-06T23:12:35.317Z,5.97
2022-09-06T23:17:40.924Z,6.67
2022-09-06T23:22:46.491Z,5.70
2022-09-06T23:27:52.031Z,5.63
2022-09-06T23:32:57.593Z,5.87
2022-09-06T23:38:02.731Z,6.03
2022-09-06T23:43:07.885Z,6.53
2022-09-06T23:48:13.051Z,5.27
2022-09-06T23:53:20.619Z,4.90
2022-09-06T23:58:26.242Z,5.27
